createdAt,value
2023-02-24T00:01:51.200Z,99.90
2023-02-24T00:11:49.771Z,99.90
2023-02-24T00:21:48.927Z,99.90
2023-02-24T00:31:48.098Z,99.90
2023-02-24T00:41:46.828Z,99.90
2023-02-24T00:51:46.078Z,99.90
2023-02-24T01:01:45.663Z,99.90
2023-02-24T01:12:03.261Z,99.90
2023-02-24T01:22:02.166Z,99.90
2023-02-24T01:32:02.548Z,99.90
2023-02-24T01:42:03.335Z,99.90
2023-02-24T01:52:02.161Z,99.90
2023-02-24T02:02:03.582Z,99.90
2023-02-24T02:12:03.040Z,99.90
2023-02-24T02:22:04.246Z,99.90
2023-02-24T02:32:05.579Z,99.90
2023-02-24T02:42:05.196Z,99.90
2023-02-24T02:52:05.396Z,99.90
2023-02-24T03:02:06.581Z,99.90
2023-02-24T03:12:07.968Z,99.90
2023-02-24T03:22:07.541Z,99.50
2023-02-24T03:32:07.293Z,99.30
2023-02-24T03:42:07.756Z,99.20
2023-02-24T03:52:08.310Z,99.20
2023-02-24T04:02:09.120Z,99.30
2023-02-24T04:12:09.846Z,99.50
2023-02-24T04:22:10.545Z,99.70
2023-02-24T04:32:11.155Z,99.70
2023-02-24T04:42:10.545Z,99.70
2023-02-24T04:52:10.427Z,99.70
2023-02-24T05:02:09.318Z,99.50
2023-02-24T05:12:09.039Z,99.40
2023-02-24T05:22:09.587Z,99.30
2023-02-24T05:32:09.148Z,99.30
2023-02-24T05:42:08.688Z,99.20
2023-02-24T05:52:08.783Z,99.00
2023-02-24T06:02:08.769Z,99.00
2023-02-24T06:12:08.206Z,98.90
2023-02-24T06:22:08.920Z,99.00
2023-02-24T06:32:08.557Z,99.00
2023-02-24T06:42:10.087Z,98.80
2023-02-24T06:52:10.595Z,98.70
2023-02-24T07:02:10.184Z,98.80
2023-02-24T07:12:10.805Z,98.60
2023-02-24T07:22:10.186Z,98.70
2023-02-24T07:32:09.556Z,98.60
2023-02-24T07:42:11.040Z,98.40
2023-02-24T07:52:11.261Z,98.10
2023-02-24T08:02:10.951Z,98.00
2023-02-24T08:12:10.562Z,97.70
2023-02-24T08:22:19.294Z,97.30
2023-02-24T08:32:20.693Z,97.10
2023-02-24T08:42:19.106Z,96.50
2023-02-24T08:52:20.026Z,95.80
2023-02-24T09:02:20.917Z,95.50
2023-02-24T09:12:24.354Z,94.90
2023-02-24T09:22:30.942Z,94.20
2023-02-24T09:32:30.207Z,93.20
2023-02-24T09:42:29.132Z,91.80
2023-02-24T09:52:32.539Z,89.70
2023-02-24T10:02:32.450Z,86.40
2023-02-24T10:12:31.146Z,84.40
2023-02-24T10:22:30.149Z,85.20
2023-02-24T10:32:31.073Z,84.90
2023-02-24T10:42:31.138Z,84.20
2023-02-24T10:52:58.692Z,85.10
2023-02-24T11:03:10.055Z,85.80
2023-02-24T11:13:27.349Z,86.50
2023-02-24T11:23:26.870Z,89.00
2023-02-24T11:33:26.243Z,90.50
2023-02-24T11:43:25.188Z,91.70
2023-02-24T11:53:24.134Z,92.60
2023-02-24T12:03:23.371Z,93.50
2023-02-24T12:13:22.331Z,94.50
2023-02-24T12:23:22.755Z,95.10
2023-02-24T12:33:24.231Z,95.80
2023-02-24T12:43:23.568Z,96.20
2023-02-24T12:53:22.231Z,96.70
2023-02-24T13:03:21.405Z,97.00
2023-02-24T13:13:20.354Z,97.30
2023-02-24T13:23:19.294Z,97.60
2023-02-24T13:33:18.308Z,97.90
2023-02-24T13:43:17.317Z,98.20
2023-02-24T13:53:16.344Z,98.20
2023-02-24T14:03:15.450Z,98.70
2023-02-24T14:13:14.242Z,98.90
2023-02-24T14:23:13.265Z,99.10
2023-02-24T14:33:12.346Z,99.50
2023-02-24T14:43:12.673Z,99.70
2023-02-24T14:53:12.282Z,99.90
2023-02-24T15:03:11.741Z,99.90
2023-02-24T15:13:11.170Z,99.90
2023-02-24T15:23:10.438Z,99.90
2023-02-24T15:33:09.184Z,99.90
2023-02-24T15:43:08.751Z,99.90
2023-02-24T15:53:09.544Z,99.90
2023-02-24T16:03:08.226Z,99.90
2023-02-24T16:13:07.225Z,99.90
2023-02-24T16:23:06.358Z,99.90
2023-02-24T16:33:05.570Z,99.90
2023-02-24T16:43:04.564Z,99.90
2023-02-24T16:53:03.320Z,99.90
2023-02-24T17:03:02.465Z,99.90
2023-02-24T17:13:01.910Z,99.90
2023-02-24T17:23:00.454Z,99.90
2023-02-24T17:32:59.534Z,99.90
2023-02-24T17:43:02.805Z,99.90
2023-02-24T17:53:01.254Z,99.90
2023-02-24T18:03:03.220Z,99.90
2023-02-24T18:13:01.418Z,99.90
2023-02-24T18:23:00.485Z,99.90
2023-02-24T18:32:59.718Z,99.90
2023-02-24T18:42:58.546Z,99.90
2023-02-24T18:52:57.391Z,99.90
2023-02-24T19:02:56.480Z,99.90
2023-02-24T19:12:55.477Z,99.90
2023-02-24T19:22:54.526Z,99.90
2023-02-24T19:32:53.772Z,99.90
2023-02-24T19:42:52.737Z,99.90
2023-02-24T19:52:51.457Z,99.90
2023-02-24T20:02:50.320Z,99.90
2023-02-24T20:12:49.416Z,99.90
2023-02-24T20:22:48.420Z,99.90
2023-02-24T20:32:47.912Z,99.90
2023-02-24T20:42:47.523Z,99.90
2023-02-24T20:52:46.633Z,99.90
2023-02-24T21:02:45.594Z,99.90
2023-02-24T21:12:44.543Z,99.90
2023-02-24T21:22:45.628Z,99.90
2023-02-24T21:32:44.664Z,99.90
2023-02-24T21:42:45.567Z,99.90
2023-02-24T21:52:46.390Z,99.90
2023-02-24T22:02:45.608Z,99.90
2023-02-24T22:12:44.458Z,99.90
2023-02-24T22:22:43.554Z,99.90
2023-02-24T22:32:42.673Z,99.90
2023-02-24T22:42:41.595Z,99.90
2023-02-24T22:52:40.672Z,99.90
2023-02-24T23:02:40.413Z,99.90
2023-02-24T23:12:39.488Z,99.90
2023-02-24T23:22:38.828Z,99.90
2023-02-24T23:32:37.666Z,99.90
2023-02-24T23:42:36.714Z,99.90
2023-02-24T23:52:35.556Z,99.90
